Rock Springs, Arkansas
Current Conditions -  °F | °C
As of 6:53 PM on Tuesday 27 Jan 2015 (Local Time) from KLLQ Reporting Station
Clear Clear  
Wind Chill: 53°   Ceiling: Unl
Heat Index: 53°   Visibility: 10mi
Dew Point: 39°   Wind: 0mph
Humidity: 59%   Direction: NA
Pressure: 30.15"   Gusts: NA
Location:  33.6204°N, 91.9247°W
Report Text: KLLQ 280053Z AUTO 00000KT 10SM CLR 12/04 A3015 RMK AO2 RAB09E48 SLP209 P0000 T01170039
Loading
Personal Weather Stations






























Interactive Weather Map New forecast layout! Learn more

10-Day Weather Forecast

Advertisements
Track Severe Weather on mobile